Time;durP1;ratioP1;P1;durP2;ratioP2;P2;SDS_P1;SDS_P2;PMS_P1;PMS_P2;Temp;Humidity;BMP_temperature;BMP_pressure;BME280_temperature;BME280_humidity;BME280_pressure;Samples;Min_cycle;Max_cycle;Signal;HPM_P1;HPM_P2
2023/09/16 00:01:56;;;;;;;10.77;3.83;;;;;;;;;;4990673;28;20160;-67
2023/09/16 00:04:45;;;;;;;10.30;4.50;;;;;;;;;;4989568;28;20473;-66
2023/09/16 00:07:39;;;;;;;12.82;4.05;;;;;;;;;;4970960;28;20054;-59
2023/09/16 00:10:26;;;;;;;11.27;4.20;;;;;;;;;;4980752;28;20066;-48
2023/09/16 00:13:20;;;;;;;9.52;4.20;;;;;;;;;;4984931;28;20090;-46
2023/09/16 00:16:08;;;;;;;16.77;4.82;;;;;;;;;;4985754;28;20499;-48
2023/09/16 00:19:09;;;;;;;11.23;4.82;;;;;;;;;;4984432;28;20059;-47
2023/09/16 00:21:55;;;;;;;6.63;4.00;;;;;;;;;;4982542;28;20054;-48
2023/09/16 00:24:49;;;;;;;11.13;4.70;;;;;;;;;;4984326;28;20522;-50
2023/09/16 00:27:39;;;;;;;11.90;4.63;;;;;;;;;;4982800;28;20054;-57
2023/09/16 00:30:30;;;;;;;11.18;4.50;;;;;;;;;;4981295;28;20065;-56
2023/09/16 00:33:18;;;;;;;13.40;4.82;;;;;;;;;;4985538;28;20145;-52
2023/09/16 00:36:11;;;;;;;11.40;4.20;;;;;;;;;;4984525;28;20157;-58
2023/09/16 00:38:58;;;;;;;10.77;4.88;;;;;;;;;;4982450;28;20069;-68
2023/09/16 00:41:52;;;;;;;10.10;4.57;;;;;;;;;;4983880;28;20050;-54
2023/09/16 00:44:39;;;;;;;12.55;4.68;;;;;;;;;;4984967;28;20058;-57
2023/09/16 00:47:33;;;;;;;9.45;4.43;;;;;;;;;;4983673;28;20502;-58
2023/09/16 00:50:21;;;;;;;9.60;4.20;;;;;;;;;;4986508;28;20081;-57
2023/09/16 00:53:16;;;;;;;12.57;4.45;;;;;;;;;;4983516;28;20739;-54
2023/09/16 00:56:03;;;;;;;13.60;4.87;;;;;;;;;;4983511;28;20046;-53
2023/09/16 00:58:58;;;;;;;9.90;4.70;;;;;;;;;;4986073;28;20317;-48
2023/09/16 01:01:49;;;;;;;7.72;4.90;;;;;;;;;;4978139;28;20510;-50
2023/09/16 01:04:40;;;;;;;7.95;4.72;;;;;;;;;;4980858;28;20077;-53
2023/09/16 01:07:28;;;;;;;13.32;4.68;;;;;;;;;;4971078;28;20068;-58
2023/09/16 01:10:22;;;;;;;7.05;4.93;;;;;;;;;;4984823;28;20653;-58
2023/09/16 01:13:16;;;;;;;12.63;4.32;;;;;;;;;;4984809;28;20077;-58
2023/09/16 01:16:17;;;;;;;11.07;5.32;;;;;;;;;;4982883;28;20495;-53
2023/09/16 01:19:24;;;;;;;10.95;5.50;;;;;;;;;;4998845;28;20053;-55
2023/09/16 01:22:18;;;;;;;10.63;4.50;;;;;;;;;;5002688;28;20059;-54
2023/09/16 01:25:06;;;;;;;9.85;5.00;;;;;;;;;;5001485;28;20450;-59
2023/09/16 01:28:00;;;;;;;14.80;5.55;;;;;;;;;;4998848;28;20445;-65
2023/09/16 01:30:50;;;;;;;8.18;4.70;;;;;;;;;;5001346;28;20120;-66
2023/09/16 01:33:46;;;;;;;9.95;5.07;;;;;;;;;;5000088;28;20053;-65
2023/09/16 01:36:34;;;;;;;9.75;5.18;;;;;;;;;;4997377;28;20093;-65
2023/09/16 01:39:29;;;;;;;12.70;5.00;;;;;;;;;;4999101;28;20104;-65
2023/09/16 01:42:17;;;;;;;;;;;;;;;;;;5003552;28;20145;-59
2023/09/16 01:45:11;;;;;;;11.90;4.93;;;;;;;;;;4998924;28;19929;-66
2023/09/16 01:47:58;;;;;;;8.63;4.82;;;;;;;;;;5001266;28;20050;-65
2023/09/16 01:51:13;;;;;;;10.50;4.80;;;;;;;;;;4999433;28;20085;-65
2023/09/16 01:53:58;;;;;;;15.90;5.78;;;;;;;;;;5004140;28;20061;-66
2023/09/16 01:56:52;;;;;;;16.90;5.45;;;;;;;;;;4999871;28;20080;-65
2023/09/16 01:59:39;;;;;;;11.88;5.07;;;;;;;;;;5001234;28;20740;-47
2023/09/16 02:02:33;;;;;;;11.32;5.72;;;;;;;;;;4989186;28;20054;-50
2023/09/16 02:05:21;;;;;;;17.63;6.25;;;;;;;;;;4988819;28;20105;-50
2023/09/16 02:08:14;;;;;;;12.65;5.90;;;;;;;;;;4988703;28;20065;-48
2023/09/16 02:11:02;;;;;;;12.45;5.97;;;;;;;;;;4986033;28;20082;-67
2023/09/16 02:13:55;;;;;;;15.13;5.88;;;;;;;;;;4994886;28;20498;-48
2023/09/16 02:16:44;;;;;;;11.23;5.70;;;;;;;;;;4997002;28;20669;-48
2023/09/16 02:19:45;;;;;;;10.65;5.80;;;;;;;;;;4982603;28;20042;-47
2023/09/16 02:22:32;;;;;;;15.68;6.70;;;;;;;;;;4999912;28;20050;-49
2023/09/16 02:25:26;;;;;;;8.25;5.15;;;;;;;;;;4994814;28;20061;-51
2023/09/16 02:28:13;;;;;;;10.60;5.80;;;;;;;;;;4997214;28;20050;-50
2023/09/16 02:31:09;;;;;;;9.65;5.60;;;;;;;;;;4996566;28;20046;-60
2023/09/16 02:33:58;;;;;;;13.90;6.57;;;;;;;;;;5002980;28;20054;-67
2023/09/16 02:36:52;;;;;;;17.33;6.40;;;;;;;;;;4989599;28;20058;-65
2023/09/16 02:39:39;;;;;;;15.20;6.15;;;;;;;;;;4996892;28;20050;-65
2023/09/16 02:42:34;;;;;;;11.85;6.47;;;;;;;;;;4991865;28;20483;-65
2023/09/16 02:45:21;;;;;;;8.23;5.87;;;;;;;;;;5004939;28;20066;-65
2023/09/16 02:48:18;;;;;;;16.15;6.22;;;;;;;;;;5001941;28;20312;-58
2023/09/16 02:51:03;;;;;;;12.68;5.30;;;;;;;;;;5000604;28;20460;-59
2023/09/16 02:53:56;;;;;;;11.63;6.07;;;;;;;;;;5001226;28;20050;-56
2023/09/16 02:56:44;;;;;;;11.15;6.15;;;;;;;;;;5002773;28;20050;-60
2023/09/16 02:59:38;;;;;;;13.07;6.00;;;;;;;;;;4999667;28;20109;-65
2023/09/16 03:02:25;;;;;;;9.38;5.57;;;;;;;;;;4994434;28;20054;-53
2023/09/16 03:05:19;;;;;;;13.25;6.63;;;;;;;;;;5002219;28;20432;-54
2023/09/16 03:08:07;;;;;;;21.88;6.90;;;;;;;;;;5001660;28;20054;-57
2023/09/16 03:11:01;;;;;;;20.17;7.40;;;;;;;;;;5001843;28;20062;-55
2023/09/16 03:13:55;;;;;;;14.45;7.45;;;;;;;;;;4997023;28;20076;-55
2023/09/16 03:16:48;;;;;;;19.45;7.55;;;;;;;;;;5006068;28;20053;-60
2023/09/16 03:19:49;;;;;;;13.57;7.40;;;;;;;;;;5002943;28;20571;-59
2023/09/16 03:22:36;;;;;;;9.77;5.72;;;;;;;;;;5004593;28;20119;-60
2023/09/16 03:25:30;;;;;;;11.50;6.60;;;;;;;;;;5002086;28;20042;-48
2023/09/16 03:28:17;;;;;;;13.98;7.32;;;;;;;;;;5003282;28;20057;-59
2023/09/16 03:31:11;;;;;;;12.13;8.05;;;;;;;;;;4994408;28;20135;-60
2023/09/16 03:33:59;;;;;;;14.13;7.38;;;;;;;;;;5004167;28;20049;-59
2023/09/16 03:36:53;;;;;;;19.00;8.52;;;;;;;;;;5005780;28;20057;-59
2023/09/16 03:39:40;;;;;;;17.33;9.88;;;;;;;;;;5001229;28;20360;-59
2023/09/16 03:42:33;;;;;;;21.30;10.77;;;;;;;;;;4989186;28;20166;-60
2023/09/16 03:45:20;;;;;;;18.92;10.95;;;;;;;;;;4996036;28;20058;-58
2023/09/16 03:48:14;;;;;;;19.67;10.75;;;;;;;;;;4996964;28;20068;-59
2023/09/16 03:51:08;;;;;;;24.50;11.50;;;;;;;;;;5002195;28;20077;-58
2023/09/16 03:54:04;;;;;;;21.98;12.60;;;;;;;;;;5004433;28;20060;-68
2023/09/16 03:56:56;;;;;;;25.75;12.63;;;;;;;;;;5001038;28;20994;-65
2023/09/16 03:59:44;;;;;;;25.88;13.65;;;;;;;;;;5001170;28;20046;-64
2023/09/16 04:02:40;;;;;;;27.55;12.73;;;;;;;;;;5003837;28;20097;-64
2023/09/16 04:05:28;;;;;;;24.50;12.88;;;;;;;;;;4999920;28;20054;-64
2023/09/16 04:08:22;;;;;;;24.48;11.52;;;;;;;;;;5002995;28;20045;-64
2023/09/16 04:11:16;;;;;;;19.35;11.85;;;;;;;;;;4998844;28;20057;-65
2023/09/16 04:14:03;;;;;;;24.15;13.70;;;;;;;;;;5000264;28;20050;-67
2023/09/16 04:16:57;;;;;;;26.00;12.48;;;;;;;;;;4998257;28;20054;-68
2023/09/16 04:19:51;;;;;;;29.52;13.77;;;;;;;;;;5002068;28;20049;-67
2023/09/16 04:22:44;;;;;;;31.08;15.18;;;;;;;;;;5000497;28;20113;-59
2023/09/16 04:25:34;;;;;;;27.00;15.00;;;;;;;;;;4997410;28;20104;-60
2023/09/16 04:28:29;;;;;;;37.42;16.42;;;;;;;;;;4999151;28;20062;-59
2023/09/16 04:31:17;;;;;;;36.97;16.45;;;;;;;;;;5003152;28;20102;-60
2023/09/16 04:34:10;;;;;;;28.70;15.02;;;;;;;;;;4998938;28;20057;-59
2023/09/16 04:36:59;;;;;;;23.65;14.40;;;;;;;;;;5001471;28;20128;-61
2023/09/16 04:39:51;;;;;;;31.27;14.77;;;;;;;;;;5001609;28;20398;-59
2023/09/16 04:42:39;;;;;;;35.97;16.92;;;;;;;;;;5000958;28;20053;-65
2023/09/16 04:45:15;;;;;;;26.85;15.50;;;;;;;;;;5001120;28;20579;-59
2023/09/16 04:47:48;;;;;;;36.45;17.65;;;;;;;;;;5001061;28;20057;-59
2023/09/16 04:50:46;;;;;;;30.95;15.07;;;;;;;;;;5000082;28;20056;-59
2023/09/16 04:53:33;;;;;;;26.58;15.02;;;;;;;;;;5000586;28;20136;-60
2023/09/16 04:56:27;;;;;;;40.50;17.20;;;;;;;;;;4997140;28;20061;-59
2023/09/16 04:59:14;;;;;;;37.53;16.65;;;;;;;;;;5001339;28;20054;-65
2023/09/16 05:02:08;;;;;;;31.67;17.10;;;;;;;;;;5000950;28;20077;-58
2023/09/16 05:04:55;;;;;;;28.63;14.95;;;;;;;;;;5001012;28;20174;-58
2023/09/16 05:07:49;;;;;;;38.13;17.15;;;;;;;;;;5002192;28;20049;-58
2023/09/16 05:10:37;;;;;;;23.67;15.73;;;;;;;;;;4987046;28;21965;-58
2023/09/16 06:06:25;;;;;;;9.00;3.97;;;;;;;;;;4961827;28;20061;-64
2023/09/16 06:08:59;;;;;;;16.10;8.43;;;;;;;;;;4986327;28;20065;-64
2023/09/16 06:11:33;;;;;;;14.25;5.47;;;;;;;;;;4983193;28;21002;-64
2023/09/16 06:14:20;;;;;;;12.55;8.35;;;;;;;;;;4985261;28;20058;-55
2023/09/16 06:17:22;;;;;;;15.98;10.00;;;;;;;;;;4983648;28;20632;-49
2023/09/16 06:20:08;;;;;;;16.40;7.78;;;;;;;;;;4987503;28;20070;-51
2023/09/16 06:23:03;;;;;;;9.90;4.10;;;;;;;;;;4985256;28;20050;-48
2023/09/16 06:25:50;;;;;;;6.25;3.53;;;;;;;;;;4984539;28;20113;-49
2023/09/16 06:28:43;;;;;;;5.68;4.32;;;;;;;;;;4981565;28;20045;-50
2023/09/16 06:31:37;;;;;;;9.32;5.65;;;;;;;;;;4985739;28;20088;-50
2023/09/16 06:34:24;;;;;;;7.18;4.75;;;;;;;;;;4982275;28;20061;-59
2023/09/16 06:36:59;;;;;;;8.23;5.03;;;;;;;;;;4986171;28;20109;-59
2023/09/16 06:39:47;;;;;;;7.80;4.93;;;;;;;;;;4986110;28;20050;-59
2023/09/16 06:42:39;;;;;;;6.30;5.00;;;;;;;;;;4984747;28;20054;-59
2023/09/16 06:45:33;;;;;;;13.18;6.15;;;;;;;;;;4983743;28;20065;-58
2023/09/16 06:48:21;;;;;;;9.95;5.38;;;;;;;;;;4977494;28;20050;-59
2023/09/16 06:51:14;;;;;;;9.13;5.65;;;;;;;;;;4980741;28;20133;-67
2023/09/16 06:54:02;;;;;;;9.98;6.50;;;;;;;;;;4970668;28;20053;-52
2023/09/16 06:56:56;;;;;;;13.93;6.22;;;;;;;;;;4961656;28;20534;-52
2023/09/16 06:59:47;;;;;;;10.48;6.72;;;;;;;;;;4967458;28;20066;-47
2023/09/16 07:02:41;;;;;;;9.48;5.93;;;;;;;;;;4972109;28;21762;-50
2023/09/16 07:05:32;;;;;;;12.82;6.35;;;;;;;;;;4968058;28;20082;-49
2023/09/16 07:08:32;;;;;;;11.38;5.70;;;;;;;;;;4989182;28;20057;-65
2023/09/16 07:11:20;;;;;;;7.47;5.60;;;;;;;;;;4998513;28;20074;-55
2023/09/16 07:14:13;;;;;;;8.82;5.20;;;;;;;;;;4998383;28;20059;-56
2023/09/16 07:17:00;;;;;;;8.60;5.60;;;;;;;;;;5001992;28;20468;-58
2023/09/16 07:19:54;;;;;;;12.15;5.82;;;;;;;;;;5002180;28;20062;-54
2023/09/16 07:22:42;;;;;;;14.10;5.93;;;;;;;;;;5002046;28;20042;-57
2023/09/16 07:25:35;;;;;;;14.73;5.57;;;;;;;;;;4995815;28;20485;-58
2023/09/16 07:28:23;;;;;;;10.82;5.22;;;;;;;;;;4995447;28;20053;-50
2023/09/16 07:31:17;;;;;;;10.30;5.55;;;;;;;;;;4997674;28;20049;-59
2023/09/16 07:34:06;;;;;;;11.63;5.97;;;;;;;;;;5002020;28;20049;-59
2023/09/16 07:37:03;;;;;;;12.50;6.50;;;;;;;;;;5002487;28;20089;-59
2023/09/16 07:39:55;;;;;;;14.90;5.80;;;;;;;;;;5002219;28;20509;-60
2023/09/16 07:42:43;;;;;;;17.67;6.88;;;;;;;;;;5002256;28;20057;-60
2023/09/16 07:45:37;;;;;;;15.07;6.60;;;;;;;;;;4994012;28;20482;-64
2023/09/16 07:48:09;;;;;;;12.15;5.53;;;;;;;;;;5001718;28;20109;-66
2023/09/16 07:50:43;;;;;;;10.00;5.80;;;;;;;;;;5005760;28;20579;-67
2023/09/16 07:53:30;;;;;;;12.55;5.60;;;;;;;;;;4994608;28;20525;-67
2023/09/16 07:56:24;;;;;;;11.02;5.05;;;;;;;;;;4998661;28;20104;-67
2023/09/16 07:59:17;;;;;;;12.18;5.88;;;;;;;;;;5002440;28;20046;-67
2023/09/16 08:02:05;;;;;;;13.43;6.47;;;;;;;;;;4995928;28;20568;-66
2023/09/16 08:04:59;;;;;;;12.38;6.53;;;;;;;;;;4999041;28;20071;-49
2023/09/16 08:07:54;;;;;;;14.57;6.05;;;;;;;;;;5003873;28;20056;-63
2023/09/16 08:10:51;;;;;;;11.80;6.00;;;;;;;;;;5002617;28;20446;-63
2023/09/16 08:13:39;;;;;;;15.30;6.78;;;;;;;;;;5001503;28;20641;-64
2023/09/16 08:16:32;;;;;;;13.00;6.68;;;;;;;;;;4999866;28;20053;-62
2023/09/16 08:19:19;;;;;;;12.23;5.65;;;;;;;;;;5001528;28;20054;-62
2023/09/16 08:22:13;;;;;;;9.85;6.90;;;;;;;;;;4998967;28;20506;-62
2023/09/16 08:25:00;;;;;;;15.13;6.65;;;;;;;;;;5004516;28;20062;-62
2023/09/16 08:27:54;;;;;;;12.95;7.63;;;;;;;;;;4997780;28;20208;-62
2023/09/16 08:30:42;;;;;;;13.93;7.75;;;;;;;;;;5004847;28;20446;-64
2023/09/16 08:33:35;;;;;;;19.25;7.97;;;;;;;;;;4997986;28;20579;-63
2023/09/16 08:36:23;;;;;;;16.10;7.43;;;;;;;;;;4995958;28;20058;-58
2023/09/16 08:39:16;;;;;;;15.57;7.57;;;;;;;;;;4985667;28;20072;-59
2023/09/16 08:42:26;;;;;;;13.07;8.05;;;;;;;;;;5000435;28;20065;-59
2023/09/16 08:45:21;;;;;;;12.40;7.13;;;;;;;;;;5001855;28;20134;-59
2023/09/16 08:48:10;;;;;;;13.18;7.13;;;;;;;;;;5004881;28;20133;-59
2023/09/16 08:51:06;;;;;;;11.23;6.88;;;;;;;;;;4991276;28;20097;-58
2023/09/16 08:54:01;;;;;;;10.82;6.63;;;;;;;;;;5002369;28;20053;-58
2023/09/16 08:56:55;;;;;;;13.15;6.32;;;;;;;;;;5001572;28;20152;-59
2023/09/16 08:59:42;;;;;;;12.02;7.70;;;;;;;;;;5003357;28;20049;-58
2023/09/16 09:02:16;;;;;;;14.25;8.18;;;;;;;;;;5002576;28;20065;-59
2023/09/16 09:04:44;;;;;;;14.20;7.50;;;;;;;;;;5003269;28;20061;-61
2023/09/16 09:07:11;;;;;;;12.52;7.03;;;;;;;;;;4994533;28;20122;-58
2023/09/16 09:09:52;;;;;;;12.85;6.93;;;;;;;;;;4977328;28;20153;-64
2023/09/16 09:12:19;;;;;;;13.15;7.47;;;;;;;;;;4981562;28;20125;-54
2023/09/16 09:14:54;;;;;;;13.07;7.00;;;;;;;;;;4981038;28;20066;-56
2023/09/16 09:17:21;;;;;;;11.75;6.93;;;;;;;;;;4985537;28;20113;-56
2023/09/16 09:19:55;;;;;;;10.25;6.45;;;;;;;;;;4981289;28;20529;-56
2023/09/16 09:22:23;;;;;;;14.50;7.55;;;;;;;;;;4976776;28;20109;-55
2023/09/16 09:24:50;;;;;;;11.73;6.93;;;;;;;;;;4981626;28;20135;-57
2023/09/16 09:27:24;;;;;;;14.63;7.03;;;;;;;;;;4977404;28;20549;-58
2023/09/16 09:29:52;;;;;;;13.10;7.50;;;;;;;;;;4971626;28;20111;-58
2023/09/16 09:32:31;;;;;;;13.73;7.90;;;;;;;;;;4980337;28;20054;-58
2023/09/16 09:35:08;;;;;;;11.88;7.80;;;;;;;;;;4977763;28;20051;-58
2023/09/16 09:37:42;;;;;;;10.93;7.35;;;;;;;;;;4980072;28;20058;-58
2023/09/16 09:40:10;;;;;;;11.45;7.60;;;;;;;;;;4993558;28;20112;-58
2023/09/16 09:42:40;;;;;;;11.98;6.70;;;;;;;;;;4988115;28;20188;-59
2023/09/16 09:45:14;;;;;;;11.75;7.25;;;;;;;;;;4984504;28;20064;-65
2023/09/16 09:47:53;;;;;;;10.98;6.95;;;;;;;;;;4988468;28;20054;-57
2023/09/16 09:50:30;;;;;;;12.17;7.20;;;;;;;;;;4991182;28;20065;-56
2023/09/16 09:53:16;;;;;;;12.90;6.95;;;;;;;;;;4991383;28;20388;-56
2023/09/16 09:56:11;;;;;;;10.80;6.90;;;;;;;;;;4985016;28;20062;-57
2023/09/16 09:58:59;;;;;;;10.07;6.30;;;;;;;;;;4989000;28;20474;-56
2023/09/16 10:01:52;;;;;;;9.68;7.05;;;;;;;;;;4984659;28;20121;-56
2023/09/16 10:04:20;;;;;;;10.80;6.47;;;;;;;;;;4969003;28;20859;-63
2023/09/16 10:07:21;;;;;;;9.13;6.20;;;;;;;;;;4993292;28;20054;-46
2023/09/16 10:10:20;;;;;;;10.13;6.18;;;;;;;;;;4976636;28;20066;-52
2023/09/16 10:13:11;;;;;;;11.13;6.40;;;;;;;;;;4987571;28;20514;-48
2023/09/16 10:16:00;;;;;;;9.07;6.07;;;;;;;;;;4987177;28;20400;-48
2023/09/16 10:18:52;;;;;;;9.65;5.85;;;;;;;;;;4985149;28;20109;-44
2023/09/16 10:21:40;;;;;;;12.13;6.83;;;;;;;;;;4987046;28;20058;-46
2023/09/16 10:24:35;;;;;;;16.42;5.78;;;;;;;;;;4989936;28;20345;-47
2023/09/16 10:27:23;;;;;;;10.23;6.43;;;;;;;;;;4982568;28;20121;-45
2023/09/16 10:30:18;;;;;;;6.68;5.30;;;;;;;;;;4986255;28;20057;-47
2023/09/16 10:33:06;;;;;;;11.60;5.68;;;;;;;;;;4990357;28;20108;-47
2023/09/16 10:36:00;;;;;;;12.20;6.43;;;;;;;;;;4977976;28;20481;-51
2023/09/16 10:38:48;;;;;;;9.10;5.70;;;;;;;;;;4985614;28;20050;-48
2023/09/16 10:41:44;;;;;;;8.70;6.00;;;;;;;;;;4979295;28;20133;-47
2023/09/16 10:44:32;;;;;;;11.50;5.43;;;;;;;;;;4987028;28;20050;-59
2023/09/16 10:47:26;;;;;;;11.23;5.72;;;;;;;;;;4986506;28;20057;-58
2023/09/16 10:50:14;;;;;;;7.75;5.30;;;;;;;;;;4981448;28;20058;-59
2023/09/16 10:53:10;;;;;;;12.13;4.90;;;;;;;;;;4984020;28;20049;-58
2023/09/16 10:56:00;;;;;;;10.10;4.95;;;;;;;;;;4989056;28;20054;-59
2023/09/16 10:58:57;;;;;;;10.13;5.43;;;;;;;;;;4988223;28;20061;-59
2023/09/16 11:01:57;;;;;;;9.75;5.05;;;;;;;;;;4974821;28;20055;-59
2023/09/16 11:04:51;;;;;;;9.40;5.30;;;;;;;;;;4987098;28;20050;-59
2023/09/16 11:07:39;;;;;;;7.15;4.55;;;;;;;;;;4988648;28;20066;-59
2023/09/16 11:10:33;;;;;;;8.07;4.57;;;;;;;;;;4988229;28;20085;-59
2023/09/16 11:13:21;;;;;;;6.03;4.85;;;;;;;;;;4988700;28;20055;-58
2023/09/16 11:16:14;;;;;;;7.95;4.60;;;;;;;;;;4984343;28;20578;-57
2023/09/16 11:19:08;;;;;;;9.77;4.40;;;;;;;;;;4984214;28;20832;-57
2023/09/16 11:22:02;;;;;;;7.05;4.68;;;;;;;;;;4990509;28;20077;-55
2023/09/16 11:24:53;;;;;;;6.22;4.00;;;;;;;;;;4989450;28;20510;-58
2023/09/16 11:27:47;;;;;;;8.35;4.30;;;;;;;;;;4985066;28;20089;-59
2023/09/16 11:30:35;;;;;;;5.97;4.05;;;;;;;;;;4978656;28;20051;-59
2023/09/16 11:33:34;;;;;;;6.72;3.75;;;;;;;;;;4985840;28;20137;-59
2023/09/16 11:36:21;;;;;;;9.75;3.60;;;;;;;;;;4986163;28;20439;-59
2023/09/16 11:39:15;;;;;;;7.13;3.67;;;;;;;;;;4987873;28;20062;-59
2023/09/16 11:42:02;;;;;;;8.43;3.58;;;;;;;;;;4982519;28;20046;-47
2023/09/16 11:44:56;;;;;;;5.38;3.33;;;;;;;;;;4986235;28;20591;-47
2023/09/16 11:47:47;;;;;;;7.93;3.53;;;;;;;;;;4984512;28;20454;-48
2023/09/16 11:50:42;;;;;;;5.20;3.30;;;;;;;;;;4983841;28;20065;-49
2023/09/16 11:53:28;;;;;;;6.07;3.55;;;;;;;;;;4985191;28;20681;-53
2023/09/16 11:56:29;;;;;;;6.18;3.50;;;;;;;;;;4987171;28;20090;-58
2023/09/16 11:59:16;;;;;;;7.00;3.80;;;;;;;;;;4982675;28;20506;-59
2023/09/16 12:02:09;;;;;;;8.23;3.65;;;;;;;;;;4981623;28;20051;-61
2023/09/16 12:04:58;;;;;;;7.38;3.50;;;;;;;;;;4986513;28;20053;-59
2023/09/16 12:07:58;;;;;;;6.68;3.20;;;;;;;;;;4994188;28;20469;-59
2023/09/16 12:10:46;;;;;;;6.28;3.22;;;;;;;;;;5003319;28;20056;-59
2023/09/16 12:13:40;;;;;;;7.22;3.13;;;;;;;;;;5005195;28;20136;-44
2023/09/16 12:16:27;;;;;;;6.00;3.13;;;;;;;;;;5000759;28;20061;-59
2023/09/16 12:19:22;;;;;;;5.35;3.00;;;;;;;;;;4999466;28;20160;-61
2023/09/16 12:22:09;;;;;;;7.90;3.43;;;;;;;;;;5009473;28;20111;-61
2023/09/16 12:25:04;;;;;;;7.15;3.28;;;;;;;;;;5005659;28;20046;-61
2023/09/16 12:27:51;;;;;;;5.05;3.28;;;;;;;;;;5002908;28;20058;-61
2023/09/16 12:30:45;;;;;;;6.97;3.30;;;;;;;;;;5004836;28;20153;-62
2023/09/16 12:33:43;;;;;;;5.30;3.28;;;;;;;;;;4994197;28;20418;-59
2023/09/16 12:36:35;;;;;;;4.70;3.20;;;;;;;;;;4991230;28;20140;-59
2023/09/16 12:39:22;;;;;;;5.82;3.50;;;;;;;;;;5003093;28;20460;-60
2023/09/16 12:42:16;;;;;;;7.82;3.40;;;;;;;;;;5003360;28;20068;-59
2023/09/16 12:45:04;;;;;;;8.05;3.65;;;;;;;;;;5006636;28;20101;-60
2023/09/16 12:47:58;;;;;;;5.57;3.17;;;;;;;;;;5000777;28;20105;-60
2023/09/16 12:50:46;;;;;;;5.18;3.63;;;;;;;;;;5006668;28;20058;-50
2023/09/16 12:53:39;;;;;;;5.47;3.10;;;;;;;;;;5003587;28;20572;-63
2023/09/16 12:56:27;;;;;;;6.40;3.55;;;;;;;;;;5001270;28;20053;-62
2023/09/16 12:59:23;;;;;;;8.32;3.20;;;;;;;;;;5004206;28;20137;-63
2023/09/16 13:02:14;;;;;;;5.18;3.13;;;;;;;;;;5003788;28;20054;-63
2023/09/16 13:05:23;;;;;;;6.63;3.35;;;;;;;;;;4999220;28;20060;-63
2023/09/16 13:08:26;;;;;;;7.68;3.25;;;;;;;;;;4984135;28;20069;-63
2023/09/16 13:11:20;;;;;;;4.85;3.20;;;;;;;;;;4986234;28;20054;-56
2023/09/16 13:14:14;;;;;;;8.40;3.20;;;;;;;;;;4969251;28;20105;-60
2023/09/16 13:17:02;;;;;;;8.30;3.33;;;;;;;;;;4974077;28;20061;-60
2023/09/16 13:20:00;;;;;;;4.57;2.88;;;;;;;;;;4982956;28;20061;-60
2023/09/16 13:22:43;;;;;;;5.75;3.10;;;;;;;;;;4981327;28;20501;-60
2023/09/16 13:25:40;;;;;;;6.30;2.85;;;;;;;;;;4981815;28;20118;-60
2023/09/16 13:28:32;;;;;;;6.15;2.95;;;;;;;;;;4983040;28;20054;-51
2023/09/16 13:31:26;;;;;;;8.82;2.92;;;;;;;;;;4981293;28;20459;-52
2023/09/16 13:34:14;;;;;;;8.07;2.80;;;;;;;;;;4980435;28;20132;-52
2023/09/16 13:37:08;;;;;;;8.15;2.92;;;;;;;;;;4979520;28;21493;-48
2023/09/16 13:39:55;;;;;;;7.10;3.10;;;;;;;;;;4984662;28;20165;-52
2023/09/16 13:42:49;;;;;;;6.25;3.13;;;;;;;;;;4975807;28;20054;-50
2023/09/16 13:45:39;;;;;;;9.27;3.10;;;;;;;;;;4969468;28;20410;-56
2023/09/16 13:48:31;;;;;;;10.27;3.20;;;;;;;;;;4983984;28;20050;-60
2023/09/16 13:51:19;;;;;;;4.22;2.70;;;;;;;;;;4984130;28;20526;-60
2023/09/16 13:54:12;;;;;;;6.30;2.90;;;;;;;;;;4979572;28;20058;-60
2023/09/16 13:56:59;;;;;;;5.85;2.65;;;;;;;;;;4983967;28;20058;-60
2023/09/16 13:59:54;;;;;;;6.20;2.67;;;;;;;;;;4982201;28;20243;-60
2023/09/16 14:02:40;;;;;;;6.20;2.50;;;;;;;;;;4984247;28;20506;-60
2023/09/16 14:05:35;;;;;;;7.47;3.05;;;;;;;;;;4979488;28;20055;-59
2023/09/16 14:08:44;;;;;;;5.82;2.83;;;;;;;;;;4983457;28;20066;-61
2023/09/16 14:11:38;;;;;;;4.60;2.63;;;;;;;;;;4973569;28;20078;-60
2023/09/16 14:14:26;;;;;;;8.48;3.03;;;;;;;;;;4982984;28;20439;-60
2023/09/16 14:17:19;;;;;;;4.53;2.63;;;;;;;;;;4979713;28;20066;-60
2023/09/16 14:20:07;;;;;;;4.10;2.70;;;;;;;;;;4979325;28;20129;-60
2023/09/16 14:23:01;;;;;;;6.80;2.78;;;;;;;;;;4985382;28;20152;-62
2023/09/16 14:25:48;;;;;;;4.10;2.55;;;;;;;;;;4984115;28;20046;-52
2023/09/16 14:28:42;;;;;;;7.60;2.47;;;;;;;;;;4983015;28;20112;-49
2023/09/16 14:31:30;;;;;;;5.40;2.67;;;;;;;;;;4992110;28;20082;-51
2023/09/16 14:34:23;;;;;;;4.03;3.03;;;;;;;;;;4987046;28;20046;-48
2023/09/16 14:37:11;;;;;;;4.38;2.72;;;;;;;;;;4989092;28;20073;-47
2023/09/16 14:40:05;;;;;;;5.13;2.95;;;;;;;;;;4990376;28;20162;-47
2023/09/16 14:42:52;;;;;;;7.00;3.25;;;;;;;;;;4992134;28;20357;-50
2023/09/16 14:45:45;;;;;;;4.15;2.55;;;;;;;;;;4985886;28;20054;-55
2023/09/16 14:48:34;;;;;;;5.25;2.40;;;;;;;;;;4975964;28;20147;-56
2023/09/16 14:51:27;;;;;;;6.43;2.78;;;;;;;;;;4992987;28;20065;-56
2023/09/16 14:54:14;;;;;;;5.65;2.55;;;;;;;;;;4984921;28;20157;-57
2023/09/16 14:57:07;;;;;;;6.65;2.95;;;;;;;;;;4986865;28;20086;-58
2023/09/16 15:00:04;;;;;;;6.05;2.90;;;;;;;;;;4981080;28;20062;-57
2023/09/16 15:02:49;;;;;;;9.38;2.83;;;;;;;;;;4984338;28;20058;-60
2023/09/16 15:05:43;;;;;;;5.70;2.45;;;;;;;;;;4982506;28;20062;-60
2023/09/16 15:08:24;;;;;;;5.57;3.05;;;;;;;;;;4974505;28;20070;-60
2023/09/16 15:11:04;;;;;;;5.45;3.08;;;;;;;;;;4986357;28;20061;-60
2023/09/16 15:13:31;;;;;;;6.78;3.25;;;;;;;;;;4983904;28;20589;-60
2023/09/16 15:16:06;;;;;;;3.95;2.63;;;;;;;;;;4985951;28;20058;-60
2023/09/16 15:18:33;;;;;;;5.72;2.78;;;;;;;;;;4989567;28;20058;-60
2023/09/16 15:21:01;;;;;;;7.15;2.90;;;;;;;;;;4991894;28;20057;-60
2023/09/16 15:23:34;;;;;;;7.10;2.78;;;;;;;;;;4987066;28;20058;-60
2023/09/16 15:26:03;;;;;;;10.50;2.97;;;;;;;;;;4985154;28;20042;-60
2023/09/16 15:28:30;;;;;;;5.28;2.67;;;;;;;;;;4982871;28;20077;-60
2023/09/16 15:31:04;;;;;;;9.98;3.00;;;;;;;;;;4987127;28;20112;-60
2023/09/16 15:33:31;;;;;;;;;;;;;;;;;;4979674;28;20927;-61
2023/09/16 15:36:06;;;;;;;8.27;2.70;;;;;;;;;;4987044;28;20390;-48
2023/09/16 15:38:33;;;;;;;;;;;;;;;;;;4987414;28;20094;-51
2023/09/16 15:41:00;;;;;;;7.40;3.00;;;;;;;;;;4988959;28;19973;-49
2023/09/16 15:43:34;;;;;;;5.35;2.97;;;;;;;;;;4991492;28;20125;-53
2023/09/16 15:46:03;;;;;;;;;;;;;;;;;;4979005;28;20054;-50
2023/09/16 15:48:30;;;;;;;6.68;2.80;;;;;;;;;;4981825;28;19925;-50
2023/09/16 15:51:04;;;;;;;5.60;2.92;;;;;;;;;;4988399;28;20050;-48
2023/09/16 15:53:32;;;;;;;;;;;;;;;;;;4987512;28;20053;-50
2023/09/16 15:56:05;;;;;;;8.35;2.75;;;;;;;;;;4987549;28;19926;-57
2023/09/16 15:58:53;;;;;;;8.52;3.28;;;;;;;;;;4986021;28;20077;-51
2023/09/16 16:01:53;;;;;;;6.40;2.78;;;;;;;;;;4990669;28;20050;-50
2023/09/16 16:04:40;;;;;;;6.60;3.05;;;;;;;;;;4985482;28;20050;-48
2023/09/16 16:07:41;;;;;;;5.20;3.00;;;;;;;;;;4980491;28;20050;-48
2023/09/16 16:10:35;;;;;;;6.50;2.90;;;;;;;;;;4985701;28;20506;-50
2023/09/16 16:13:29;;;;;;;4.75;2.70;;;;;;;;;;4987372;28;20093;-61
2023/09/16 16:16:23;;;;;;;5.22;2.78;;;;;;;;;;4985167;28;20093;-60
2023/09/16 16:19:18;;;;;;;4.30;2.83;;;;;;;;;;4988167;28;20050;-60
2023/09/16 16:22:06;;;;;;;7.30;2.67;;;;;;;;;;4990397;28;20050;-60
2023/09/16 16:25:00;;;;;;;5.47;2.53;;;;;;;;;;4991409;28;20169;-60
2023/09/16 16:27:47;;;;;;;6.93;3.03;;;;;;;;;;4985551;28;20062;-60
2023/09/16 16:30:40;;;;;;;4.88;2.70;;;;;;;;;;4988512;28;20062;-61
2023/09/16 16:33:28;;;;;;;10.23;3.08;;;;;;;;;;4985975;28;20102;-47
2023/09/16 16:36:22;;;;;;;8.10;3.20;;;;;;;;;;4989083;28;20442;-49
2023/09/16 16:39:09;;;;;;;6.25;2.47;;;;;;;;;;4984432;28;20094;-46
2023/09/16 16:42:04;;;;;;;5.03;2.90;;;;;;;;;;4988193;28;20054;-49
2023/09/16 16:44:50;;;;;;;6.45;2.67;;;;;;;;;;4987198;28;20060;-49
2023/09/16 16:47:45;;;;;;;7.88;2.83;;;;;;;;;;4989182;28;20487;-50
2023/09/16 16:50:31;;;;;;;8.45;2.80;;;;;;;;;;4986504;28;20387;-61
2023/09/16 16:53:25;;;;;;;8.65;3.10;;;;;;;;;;4988262;28;20046;-60
2023/09/16 16:56:13;;;;;;;8.60;3.22;;;;;;;;;;4972765;28;20058;-60
2023/09/16 16:59:12;;;;;;;6.38;2.70;;;;;;;;;;4980144;28;21244;-59
2023/09/16 17:02:04;;;;;;;7.65;3.03;;;;;;;;;;4986304;28;20046;-59
2023/09/16 17:04:54;;;;;;;5.40;2.80;;;;;;;;;;4982870;28;20474;-59
2023/09/16 17:07:47;;;;;;;14.50;3.13;;;;;;;;;;4982011;28;20054;-57
2023/09/16 17:10:48;;;;;;;8.43;3.28;;;;;;;;;;5002198;28;20116;-50
2023/09/16 17:13:43;;;;;;;5.55;3.33;;;;;;;;;;4997526;28;20112;-49
2023/09/16 17:16:33;;;;;;;6.22;3.35;;;;;;;;;;4989184;28;20240;-51
2023/09/16 17:19:28;;;;;;;5.10;3.15;;;;;;;;;;4982301;28;20058;-51
2023/09/16 17:22:14;;;;;;;8.35;3.78;;;;;;;;;;4982165;28;20497;-51
2023/09/16 17:24:47;;;;;;;7.57;3.88;;;;;;;;;;4979819;28;20054;-48
2023/09/16 17:27:35;;;;;;;8.10;3.60;;;;;;;;;;4974657;28;20426;-60
2023/09/16 17:30:28;;;;;;;8.80;3.40;;;;;;;;;;4987019;28;20069;-63
2023/09/16 17:33:16;;;;;;;6.43;3.73;;;;;;;;;;4991783;28;20144;-63
2023/09/16 17:36:11;;;;;;;5.20;3.58;;;;;;;;;;4987748;28;20364;-63
2023/09/16 17:38:58;;;;;;;5.72;3.20;;;;;;;;;;4990400;28;20073;-63